Time;durP1;ratioP1;P1;durP2;ratioP2;P2;SDS_P1;SDS_P2;PMS_P1;PMS_P2;Temp;Humidity;BMP_temperature;BMP_pressure;BME280_temperature;BME280_humidity;BME280_pressure;Samples;Min_cycle;Max_cycle;Signal;HPM_P1;HPM_P2
2024/01/26 00:01:31;;;;;;;4.07;1.20;;;;;;;11.42;100.00;100631.28;4934891;29;20023;-89
2024/01/26 00:03:57;;;;;;;2.70;1.50;;;;;;;11.42;100.00;100632.13;4960334;28;20452;-90
2024/01/26 00:06:23;;;;;;;4.80;1.15;;;;;;;11.43;100.00;100628.59;4934429;29;20466;-90
2024/01/26 00:08:49;;;;;;;5.00;1.80;;;;;;;11.44;100.00;100617.38;4934624;29;20042;-90
2024/01/26 00:11:15;;;;;;;5.50;1.30;;;;;;;11.47;100.00;100606.84;4934769;29;20398;-89
2024/01/26 00:13:40;;;;;;;4.68;1.45;;;;;;;11.39;100.00;100618.53;4934310;29;20521;-90
2024/01/26 00:16:06;;;;;;;4.88;1.45;;;;;;;11.40;100.00;100622.78;4934716;29;20032;-89
2024/01/26 00:18:31;;;;;;;1.83;1.30;;;;;;;11.41;100.00;100604.63;4937069;29;20393;-90
2024/01/26 00:20:56;;;;;;;6.57;1.40;;;;;;;11.43;100.00;100601.94;4956487;28;20027;-90
2024/01/26 00:23:22;;;;;;;4.70;1.92;;;;;;;11.43;100.00;100607.09;4933708;29;20028;-89
2024/01/26 00:25:47;;;;;;;5.43;1.67;;;;;;;11.48;100.00;100599.91;4933802;29;20034;-89
2024/01/26 00:28:12;;;;;;;6.65;2.08;;;;;;;11.49;100.00;100591.25;4933342;29;20115;-89
2024/01/26 00:30:38;;;;;;;5.32;2.40;;;;;;;11.51;100.00;100585.06;4934722;29;20067;-89
2024/01/26 00:33:03;;;;;;;9.90;2.58;;;;;;;11.57;100.00;100600.19;4949307;28;20475;-90
2024/01/26 00:35:28;;;;;;;6.40;2.00;;;;;;;11.57;100.00;100610.53;4934481;29;20115;-89
2024/01/26 00:37:54;;;;;;;6.60;1.67;;;;;;;11.64;100.00;100628.28;4934341;29;20031;-89
2024/01/26 00:40:20;;;;;;;6.00;2.13;;;;;;;11.63;100.00;100618.84;4934462;29;20043;-89
2024/01/26 00:42:45;;;;;;;9.45;1.77;;;;;;;11.72;100.00;100610.56;4934504;29;20028;-88
2024/01/26 00:45:11;;;;;;;6.85;2.22;;;;;;;11.60;100.00;100611.28;4933473;29;20023;-89
2024/01/26 00:47:37;;;;;;;5.35;2.20;;;;;;;11.69;100.00;100613.34;4934522;29;20118;-89
2024/01/26 00:50:04;;;;;;;11.60;3.50;;;;;;;11.65;100.00;100598.91;4934493;29;20062;-90
2024/01/26 00:52:29;;;;;;;3.63;2.25;;;;;;;11.72;100.00;100613.16;4934246;29;20068;-90
2024/01/26 00:54:55;;;;;;;5.93;1.70;;;;;;;11.69;100.00;100598.66;4934481;29;20062;-90
2024/01/26 00:57:20;;;;;;;8.70;3.15;;;;;;;11.72;100.00;100597.63;4934301;29;20518;-89
2024/01/26 00:59:45;;;;;;;5.75;2.33;;;;;;;11.72;100.00;100605.38;4934444;29;20031;-90
2024/01/26 01:02:11;;;;;;;7.68;1.92;;;;;;;11.68;100.00;100603.91;4934403;29;20486;-90
2024/01/26 01:04:36;;;;;;;8.05;1.90;;;;;;;11.72;100.00;100602.81;4934421;29;20434;-90
2024/01/26 01:07:03;;;;;;;6.35;2.58;;;;;;;11.71;100.00;100606.31;4934305;29;20024;-90
2024/01/26 01:09:28;;;;;;;4.38;1.25;;;;;;;11.71;100.00;100611.50;4933205;29;20118;-89
2024/01/26 01:11:54;;;;;;;10.27;1.67;;;;;;;11.68;100.00;100627.16;4934413;29;20173;-89
2024/01/26 01:14:19;;;;;;;4.93;1.23;;;;;;;11.70;100.00;100635.66;4937159;29;20027;-90
2024/01/26 01:16:45;;;;;;;1.52;0.63;;;;;;;11.73;100.00;100645.84;4937842;29;20028;-89
2024/01/26 01:19:11;;;;;;;2.08;0.55;;;;;;;11.82;100.00;100654.81;4938069;29;20210;-90
2024/01/26 01:21:36;;;;;;;1.85;0.47;;;;;;;11.82;100.00;100647.88;4936615;29;20553;-89
2024/01/26 01:24:02;;;;;;;1.75;0.40;;;;;;;11.74;100.00;100638.00;4936672;29;20493;-90
2024/01/26 01:26:27;;;;;;;1.85;0.40;;;;;;;11.72;100.00;100654.50;4952431;29;20031;-89
2024/01/26 01:28:53;;;;;;;2.47;0.50;;;;;;;11.68;100.00;100643.53;4937753;29;20030;-90
2024/01/26 01:31:19;;;;;;;3.00;0.70;;;;;;;11.63;100.00;100637.81;4937780;29;20027;-90
2024/01/26 01:33:45;;;;;;;3.65;0.50;;;;;;;11.61;100.00;100650.00;4937847;29;20111;-89
2024/01/26 01:36:10;;;;;;;4.22;0.77;;;;;;;11.68;100.00;100647.84;4937669;29;20031;-90
2024/01/26 01:38:35;;;;;;;4.47;0.75;;;;;;;11.64;100.00;100672.25;4937554;29;20057;-90
2024/01/26 01:41:02;;;;;;;5.68;0.90;;;;;;;11.65;100.00;100658.38;4937996;29;20028;-89
2024/01/26 01:43:28;;;;;;;8.40;1.10;;;;;;;11.56;100.00;100655.41;4937617;29;20035;-89
2024/01/26 01:45:53;;;;;;;7.25;1.75;;;;;;;11.61;100.00;100654.31;4936050;29;20035;-89
2024/01/26 01:48:20;;;;;;;6.70;1.00;;;;;;;11.53;100.00;100645.28;4937211;29;20083;-90
2024/01/26 01:50:45;;;;;;;8.55;1.50;;;;;;;11.52;100.00;100633.25;4937457;29;20027;-90
2024/01/26 01:53:12;;;;;;;5.13;1.17;;;;;;;11.50;100.00;100634.25;4937193;29;20376;-89
2024/01/26 01:55:40;;;;;;;9.55;1.38;;;;;;;11.48;100.00;100636.91;4937215;29;20123;-90
2024/01/26 01:58:06;;;;;;;10.23;1.35;;;;;;;11.37;100.00;100631.56;4937251;29;20032;-90
2024/01/26 02:00:32;;;;;;;7.70;1.20;;;;;;;11.43;100.00;100638.13;4937027;29;20028;-90
2024/01/26 02:02:58;;;;;;;11.88;2.85;;;;;;;11.34;100.00;100617.06;4937330;29;20020;-90
2024/01/26 02:05:23;;;;;;;7.95;1.60;;;;;;;11.30;100.00;100622.50;4951486;29;20398;-90
2024/01/26 02:07:49;;;;;;;9.05;1.60;;;;;;;11.22;100.00;100615.19;4936961;29;20034;-89
2024/01/26 02:10:15;;;;;;;11.15;2.33;;;;;;;11.26;100.00;100615.81;4936984;29;20023;-89
2024/01/26 02:12:40;;;;;;;7.80;1.60;;;;;;;11.26;100.00;100626.16;4936993;29;20115;-90
2024/01/26 02:15:08;;;;;;;13.70;2.65;;;;;;;11.29;100.00;100621.66;4936644;29;20035;-90
2024/01/26 02:17:35;;;;;;;14.85;2.40;;;;;;;11.31;100.00;100631.91;4936714;29;20034;-89
2024/01/26 02:20:02;;;;;;;17.02;2.08;;;;;;;11.33;100.00;100640.41;4936519;29;20059;-89
2024/01/26 02:22:27;;;;;;;10.80;2.10;;;;;;;11.19;100.00;100655.84;4935373;29;20036;-90
2024/01/26 02:24:53;;;;;;;16.85;2.25;;;;;;;11.11;100.00;100649.38;4935785;29;20032;-89
2024/01/26 02:27:18;;;;;;;13.18;2.92;;;;;;;10.98;100.00;100673.41;4936591;29;20451;-90
2024/01/26 02:29:44;;;;;;;21.27;3.00;;;;;;;10.85;100.00;100652.56;4936680;29;20031;-89
2024/01/26 02:32:10;;;;;;;19.67;2.58;;;;;;;10.70;100.00;100634.44;4936464;29;20490;-90
2024/01/26 02:34:36;;;;;;;22.15;3.03;;;;;;;10.73;100.00;100640.31;4936523;29;20028;-89
2024/01/26 02:37:01;;;;;;;16.98;2.63;;;;;;;10.83;100.00;100628.59;4936424;29;20486;-90
2024/01/26 02:39:28;;;;;;;16.58;3.42;;;;;;;10.77;100.00;100632.34;4935149;29;20032;-89
2024/01/26 02:41:54;;;;;;;14.43;2.45;;;;;;;10.76;100.00;100637.59;4936346;29;20578;-90
2024/01/26 02:44:19;;;;;;;21.88;3.03;;;;;;;10.73;100.00;100638.59;4936105;29;20122;-90
2024/01/26 02:46:46;;;;;;;15.80;2.92;;;;;;;10.69;100.00;100652.59;4936191;29;20035;-90
2024/01/26 02:49:12;;;;;;;16.60;2.88;;;;;;;10.72;100.00;100642.09;4936215;29;20027;-89
2024/01/26 02:51:38;;;;;;;12.63;1.98;;;;;;;10.75;100.00;100646.25;4936029;29;20489;-89
2024/01/26 02:54:03;;;;;;;13.25;2.42;;;;;;;10.71;100.00;100645.59;4934861;29;20035;-90
2024/01/26 02:56:28;;;;;;;14.65;2.40;;;;;;;10.73;100.00;100650.66;4935750;29;20036;-90
2024/01/26 02:58:54;;;;;;;16.73;1.77;;;;;;;10.66;100.00;100663.91;4935870;29;20031;-90
2024/01/26 03:01:19;;;;;;;12.00;2.70;;;;;;;10.67;100.00;100665.56;4936071;29;20578;-89
2024/01/26 03:03:44;;;;;;;11.30;1.75;;;;;;;10.66;100.00;100668.25;4936022;29;20394;-89
2024/01/26 03:06:13;;;;;;;11.63;2.55;;;;;;;10.75;100.00;100682.38;4934620;29;20039;-89
2024/01/26 03:08:39;;;;;;;17.73;2.38;;;;;;;10.66;100.00;100694.88;4935948;29;20363;-89
2024/01/26 03:11:05;;;;;;;10.95;1.95;;;;;;;10.73;100.00;100720.34;4934699;29;20091;-88
2024/01/26 03:13:30;;;;;;;10.43;1.73;;;;;;;10.59;100.00;100718.53;4935785;29;20028;-89
2024/01/26 03:15:56;;;;;;;14.80;2.47;;;;;;;10.52;100.00;100725.75;4935661;29;20028;-89
2024/01/26 03:18:21;;;;;;;16.65;2.55;;;;;;;10.51;100.00;100749.91;4935898;29;20031;-89
2024/01/26 03:20:47;;;;;;;14.15;1.92;;;;;;;10.35;100.00;100777.41;4935882;29;20034;-89
2024/01/26 03:23:13;;;;;;;20.40;3.35;;;;;;;10.12;100.00;100761.31;4935777;29;20230;-88
2024/01/26 03:25:39;;;;;;;16.15;3.13;;;;;;;9.98;100.00;100776.66;4935298;29;20039;-90
2024/01/26 03:28:06;;;;;;;32.75;3.90;;;;;;;10.02;100.00;100806.50;4935578;29;20534;-89
2024/01/26 03:30:31;;;;;;;23.08;4.45;;;;;;;9.83;100.00;100819.50;4935535;29;20554;-88
2024/01/26 03:32:57;;;;;;;24.02;3.13;;;;;;;9.67;100.00;100811.63;4934137;29;20123;-89
2024/01/26 03:35:22;;;;;;;35.40;4.32;;;;;;;9.56;100.00;100813.88;4935325;29;20394;-89
2024/01/26 03:37:48;;;;;;;28.98;4.15;;;;;;;9.54;100.00;100816.56;4935637;29;20027;-89
2024/01/26 03:40:13;;;;;;;28.17;4.03;;;;;;;9.45;100.00;100836.75;4935692;29;20044;-89
2024/01/26 03:42:39;;;;;;;29.20;5.38;;;;;;;9.28;100.00;100851.25;4935317;29;20110;-88
2024/01/26 03:45:05;;;;;;;38.38;5.57;;;;;;;9.22;100.00;100841.22;4965960;28;20032;-90
2024/01/26 03:47:30;;;;;;;43.70;4.88;;;;;;;9.20;100.00;100835.31;4935231;29;20027;-89
2024/01/26 03:49:55;;;;;;;35.13;6.40;;;;;;;9.05;100.00;100836.00;4935190;29;20094;-89
2024/01/26 03:52:21;;;;;;;40.50;5.40;;;;;;;9.18;100.00;100852.56;4935446;29;20024;-89
2024/01/26 03:54:46;;;;;;;31.35;4.35;;;;;;;9.19;100.00;100831.03;4935260;29;20027;-90
2024/01/26 03:57:12;;;;;;;30.65;5.20;;;;;;;9.13;100.00;100845.03;4934872;29;20119;-90
2024/01/26 03:59:37;;;;;;;23.50;3.33;;;;;;;8.94;100.00;100847.59;4933799;29;20122;-89
2024/01/26 04:02:03;;;;;;;39.13;4.93;;;;;;;8.88;100.00;100860.75;4935106;29;20459;-89
2024/01/26 04:04:28;;;;;;;28.33;4.68;;;;;;;8.88;100.00;100872.78;4933627;29;20058;-89
2024/01/26 04:06:55;;;;;;;34.25;5.57;;;;;;;8.81;100.00;100866.22;4934892;29;20051;-89
2024/01/26 04:09:20;;;;;;;31.17;4.28;;;;;;;8.76;100.00;100871.56;4935077;29;20145;-89
2024/01/26 04:11:46;;;;;;;27.20;3.97;;;;;;;8.80;100.00;100891.09;4934883;29;20042;-89
2024/01/26 04:14:11;;;;;;;24.88;5.25;;;;;;;8.73;100.00;100924.00;4934908;29;20028;-89
2024/01/26 04:16:36;;;;;;;21.13;3.90;;;;;;;8.72;100.00;100914.59;4934727;29;20053;-89
2024/01/26 04:19:01;;;;;;;35.70;5.07;;;;;;;8.76;100.00;100915.31;4934577;29;20035;-89
2024/01/26 04:21:27;;;;;;;37.28;4.63;;;;;;;8.64;100.00;100926.13;4934648;29;20118;-90
2024/01/26 04:23:52;;;;;;;40.95;5.43;;;;;;;8.69;100.00;100937.06;4935193;29;20490;-89
2024/01/26 04:26:18;;;;;;;27.88;4.72;;;;;;;8.67;100.00;100951.72;4934581;29;20019;-89
2024/01/26 04:28:43;;;;;;;24.77;4.65;;;;;;;8.68;100.00;100963.69;4934513;29;20493;-89
2024/01/26 04:31:08;;;;;;;27.30;4.40;;;;;;;8.55;100.00;100948.75;4934715;29;20619;-89
2024/01/26 04:33:34;;;;;;;25.35;4.35;;;;;;;8.49;100.00;100954.16;4934590;29;20467;-89
2024/01/26 04:35:59;;;;;;;24.80;3.45;;;;;;;8.47;100.00;100971.38;4934494;29;20130;-90
2024/01/26 04:38:25;;;;;;;18.20;3.00;;;;;;;8.32;100.00;100971.97;4934616;29;20028;-91
2024/01/26 04:40:50;;;;;;;19.80;2.72;;;;;;;8.15;100.00;100981.19;4934438;29;20513;-90
2024/01/26 04:43:16;;;;;;;19.05;3.05;;;;;;;8.25;100.00;100996.25;4934341;29;20035;-91
2024/01/26 04:45:41;;;;;;;25.02;3.45;;;;;;;8.23;100.00;101003.19;4934172;29;20171;-91
2024/01/26 04:48:07;;;;;;;24.05;3.50;;;;;;;8.00;100.00;101014.34;4935687;29;20032;-91
2024/01/26 04:50:32;;;;;;;9.82;2.10;;;;;;;7.90;100.00;101006.13;4969133;28;20032;-91
2024/01/26 04:52:57;;;;;;;13.32;2.45;;;;;;;7.88;100.00;101023.34;4938643;29;20027;-91
2024/01/26 04:55:26;;;;;;;11.82;1.80;;;;;;;7.78;100.00;101030.56;4938170;29;20078;-90
2024/01/26 04:57:52;;;;;;;11.07;1.30;;;;;;;7.61;100.00;101038.88;4938318;29;20035;-90
2024/01/26 05:00:20;;;;;;;5.55;1.40;;;;;;;7.58;100.00;101067.22;4938182;29;20044;-91
2024/01/26 05:02:46;;;;;;;5.28;1.23;;;;;;;7.48;100.00;101065.88;4938195;29;20028;-91
2024/01/26 05:05:12;;;;;;;9.95;2.13;;;;;;;7.39;100.00;101061.03;4937877;29;20099;-88
2024/01/26 05:07:38;;;;;;;7.05;0.90;;;;;;;7.35;100.00;101075.72;4938183;29;20035;-90
2024/01/26 05:10:05;;;;;;;10.48;1.10;;;;;;;7.24;100.00;101088.94;4938100;29;20028;-91
2024/01/26 05:12:31;;;;;;;10.52;1.23;;;;;;;7.31;100.00;101078.44;4937933;29;20031;-90
2024/01/26 05:14:56;;;;;;;17.17;1.30;;;;;;;7.11;100.00;101072.25;4938334;29;20027;-90
2024/01/26 05:17:21;;;;;;;7.93;1.23;;;;;;;6.93;100.00;101078.81;4968503;28;20180;-90
2024/01/26 05:19:47;;;;;;;7.03;1.25;;;;;;;7.05;100.00;101098.13;4936505;29;20036;-90
2024/01/26 05:22:12;;;;;;;7.60;1.30;;;;;;;6.95;100.00;101094.16;4937811;29;20352;-90
2024/01/26 05:24:37;;;;;;;12.90;1.05;;;;;;;6.87;100.00;101094.41;4937734;29;20040;-90
2024/01/26 05:27:03;;;;;;;8.55;2.17;;;;;;;6.82;100.00;101111.66;4937654;29;20036;-90
2024/01/26 05:29:29;;;;;;;6.85;1.15;;;;;;;6.76;100.00;101102.44;4937767;29;20478;-90
2024/01/26 05:31:54;;;;;;;9.07;0.98;;;;;;;6.68;100.00;101106.94;4937756;29;20036;-90
2024/01/26 05:34:19;;;;;;;4.40;1.00;;;;;;;6.74;100.00;101127.31;4937954;29;20053;-91
2024/01/26 05:36:45;;;;;;;10.80;1.27;;;;;;;6.63;100.00;101131.91;4936213;29;20024;-90
2024/01/26 05:39:11;;;;;;;9.18;1.13;;;;;;;6.67;100.00;101150.63;4937551;29;20023;-90
2024/01/26 05:41:36;;;;;;;4.30;0.80;;;;;;;6.47;100.00;101159.75;4937308;29;20027;-90
2024/01/26 05:44:02;;;;;;;10.15;0.95;;;;;;;6.55;100.00;101165.47;4937627;29;20172;-91
2024/01/26 05:46:28;;;;;;;11.23;1.20;;;;;;;6.48;100.00;101163.13;4937897;29;20031;-90
2024/01/26 05:48:55;;;;;;;8.32;1.33;;;;;;;6.39;100.00;101185.59;4937379;29;20525;-90
2024/01/26 05:51:20;;;;;;;13.18;2.10;;;;;;;6.41;100.00;101204.34;4937227;29;20092;-89
2024/01/26 05:53:45;;;;;;;4.45;0.57;;;;;;;6.49;100.00;101200.75;4937256;29;20120;-90
2024/01/26 05:56:11;;;;;;;8.18;1.00;;;;;;;6.28;100.00;101208.13;4967806;28;20079;-90
2024/01/26 05:58:36;;;;;;;3.85;0.98;;;;;;;6.23;100.00;101215.09;4967752;28;20694;-91
2024/01/26 06:01:02;;;;;;;4.22;0.65;;;;;;;6.23;100.00;101222.78;4935912;29;20098;-91
2024/01/26 06:03:27;;;;;;;6.47;1.00;;;;;;;6.14;100.00;101233.28;4937193;29;20102;-90
2024/01/26 06:05:53;;;;;;;3.95;0.98;;;;;;;6.11;100.00;101230.81;4937034;29;20027;-91
2024/01/26 06:08:18;;;;;;;5.82;1.15;;;;;;;6.07;100.00;101245.44;4937000;29;20032;-90
2024/01/26 06:10:43;;;;;;;7.72;0.80;;;;;;;6.00;100.00;101255.00;4936829;29;20575;-91
2024/01/26 06:13:09;;;;;;;7.40;0.88;;;;;;;5.99;100.00;101260.97;4937034;29;20024;-90
2024/01/26 06:15:35;;;;;;;9.15;0.90;;;;;;;5.90;100.00;101274.00;4936868;29;20079;-92
2024/01/26 06:18:01;;;;;;;8.02;0.90;;;;;;;6.05;100.00;101277.09;4935640;29;20391;-91
2024/01/26 06:20:31;;;;;;;9.70;1.25;;;;;;;5.87;100.00;101279.19;4936769;29;20028;-91
2024/01/26 06:22:57;;;;;;;8.70;1.13;;;;;;;5.77;100.00;101293.94;4936651;29;20030;-90
2024/01/26 06:25:22;;;;;;;8.40;1.00;;;;;;;5.76;100.00;101304.25;4937056;29;20534;-88
2024/01/26 06:27:47;;;;;;;6.25;0.93;;;;;;;5.67;100.00;101289.91;4936670;29;20038;-92
2024/01/26 06:30:13;;;;;;;9.27;1.20;;;;;;;5.63;100.00;101297.72;4951353;29;20020;-90
2024/01/26 06:32:42;;;;;;;7.95;1.55;;;;;;;5.66;100.00;101310.47;4935322;29;20063;-91
2024/01/26 06:35:07;;;;;;;7.47;1.00;;;;;;;5.60;100.00;101321.66;4967323;28;20126;-91
2024/01/26 06:37:33;;;;;;;7.55;1.30;;;;;;;5.63;100.00;101339.53;4936663;29;20094;-91
2024/01/26 06:39:59;;;;;;;12.38;1.67;;;;;;;5.51;100.00;101353.47;4936519;29;20050;-91
2024/01/26 06:42:25;;;;;;;11.13;1.35;;;;;;;5.55;100.00;101357.63;4936302;29;20103;-91
2024/01/26 06:44:52;;;;;;;9.48;2.63;;;;;;;5.52;100.00;101365.38;4936328;29;20031;-92
2024/01/26 06:47:19;;;;;;;6.25;1.00;;;;;;;5.49;100.00;101380.81;4936027;29;20050;-92
2024/01/26 06:49:44;;;;;;;7.65;1.75;;;;;;;5.47;100.00;101387.69;4936259;29;20027;-92
2024/01/26 06:52:09;;;;;;;6.97;1.00;;;;;;;5.38;100.00;101384.47;4936221;29;20103;-92
2024/01/26 06:54:35;;;;;;;6.90;0.80;;;;;;;5.28;100.00;101394.06;4935048;29;20031;-93
2024/01/26 06:57:00;;;;;;;10.57;1.52;;;;;;;5.28;100.00;101394.88;4936239;29;20027;-90
2024/01/26 06:59:26;;;;;;;13.35;0.98;;;;;;;5.09;100.00;101401.25;4934786;29;20032;-90
2024/01/26 07:01:51;;;;;;;8.13;2.13;;;;;;;5.17;100.00;101419.00;4935929;29;20032;-90
2024/01/26 07:04:17;;;;;;;8.18;1.27;;;;;;;5.18;100.00;101423.25;4935999;29;20490;-92
2024/01/26 07:06:42;;;;;;;6.07;0.98;;;;;;;5.17;100.00;101419.00;4935950;29;20023;-93
2024/01/26 07:09:08;;;;;;;7.43;1.30;;;;;;;5.09;100.00;101422.53;4935762;29;20466;-92
2024/01/26 07:11:34;;;;;;;9.32;1.38;;;;;;;5.02;100.00;101431.22;4935814;29;20107;-93
2024/01/26 07:14:00;;;;;;;9.20;1.02;;;;;;;4.97;100.00;101443.25;4935865;29;20020;-93
2024/01/26 07:16:25;;;;;;;5.88;1.25;;;;;;;4.84;100.00;101452.03;4935869;29;20028;-93
2024/01/26 07:18:51;;;;;;;4.78;0.93;;;;;;;4.85;100.00;101453.69;4935694;29;20054;-92
2024/01/26 07:21:19;;;;;;;6.68;1.02;;;;;;;4.83;100.00;101465.66;4935757;29;20019;-92
2024/01/26 07:23:45;;;;;;;6.60;0.80;;;;;;;4.69;100.00;101476.97;4935611;29;20497;-93
2024/01/26 07:26:10;;;;;;;7.28;1.50;;;;;;;4.62;100.00;101482.22;4935579;29;20107;-92
2024/01/26 07:28:35;;;;;;;5.60;1.00;;;;;;;4.64;100.00;101494.13;4934486;29;20118;-92
2024/01/26 07:31:01;;;;;;;5.25;1.00;;;;;;;4.58;100.00;101481.41;4934431;29;20024;-90
2024/01/26 07:33:26;;;;;;;9.18;1.40;;;;;;;4.45;100.00;101497.81;4935745;29;20035;-93
2024/01/26 07:35:51;;;;;;;10.38;1.00;;;;;;;4.54;100.00;101510.47;4935292;29;20066;-92
2024/01/26 07:38:17;;;;;;;11.02;1.27;;;;;;;4.43;100.00;101507.22;4935219;29;20031;-92
2024/01/26 07:40:42;;;;;;;9.43;1.00;;;;;;;4.56;100.00;101518.97;4935506;29;20498;-92
2024/01/26 07:43:09;;;;;;;11.23;1.00;;;;;;;4.69;100.00;101519.63;4934074;29;20028;-92
2024/01/26 07:45:34;;;;;;;9.10;1.00;;;;;;;4.62;100.00;101529.09;4935371;29;20028;-92
2024/01/26 07:48:00;;;;;;;3.92;1.25;;;;;;;4.69;100.00;101534.97;4935570;29;20487;-93
2024/01/26 07:50:25;;;;;;;6.78;0.98;;;;;;;4.63;100.00;101546.13;4935761;29;20102;-94
2024/01/26 07:52:50;;;;;;;3.88;1.13;;;;;;;4.55;100.00;101547.94;4935635;29;20120;-94
2024/01/26 07:55:17;;;;;;;6.15;1.00;;;;;;;4.51;100.00;101551.41;4966858;28;20039;-94
2024/01/26 07:57:42;;;;;;;8.32;1.75;;;;;;;4.52;100.00;101562.50;4934490;29;20034;-93
2024/01/26 08:00:10;;;;;;;22.58;2.35;;;;;;;4.59;100.00;101571.75;4936836;29;20032;-94
2024/01/26 08:02:35;;;;;;;8.63;1.00;;;;;;;4.44;100.00;101575.38;4934754;29;20123;-93
2024/01/26 08:05:00;;;;;;;7.72;1.45;;;;;;;4.49;100.00;101600.00;4934904;29;20394;-94
2024/01/26 08:07:26;;;;;;;5.50;1.27;;;;;;;4.46;100.00;101594.06;4935171;29;20023;-92
2024/01/26 08:09:51;;;;;;;10.75;1.27;;;;;;;4.41;100.00;101611.19;4937427;29;20020;-95
2024/01/26 08:12:17;;;;;;;8.05;1.50;;;;;;;4.37;100.00;101609.56;4935006;29;20040;-96
2024/01/26 08:14:42;;;;;;;10.50;1.15;;;;;;;4.38;100.00;101624.03;4936637;29;20031;-93
2024/01/26 08:17:07;;;;;;;9.00;1.70;;;;;;;4.27;100.00;101627.56;4933896;29;20031;-95
2024/01/26 08:19:35;;;;;;;11.25;1.25;;;;;;;4.27;100.00;101627.56;4916695;29;20118;-94
2024/01/26 08:22:01;;;;;;;11.07;1.33;;;;;;;4.37;100.00;101642.78;4915936;29;20028;-95
2024/01/26 08:24:27;;;;;;;13.30;2.50;;;;;;;4.36;100.00;101649.59;4932284;29;20023;-94
2024/01/26 08:26:52;;;;;;;8.57;1.08;;;;;;;4.30;100.00;101642.00;4969249;28;20371;-94
2024/01/26 08:29:21;;;;;;;8.75;1.52;;;;;;;4.20;100.00;101638.72;4954723;28;20023;-95
2024/01/26 08:31:47;;;;;;;14.93;1.42;;;;;;;4.23;100.00;101658.28;4953537;29;20057;-95
2024/01/26 08:34:12;;;;;;;8.48;1.67;;;;;;;4.33;100.00;101661.56;4954710;28;20049;-93
2024/01/26 08:36:38;;;;;;;9.23;1.05;;;;;;;4.40;100.00;101663.19;4969281;28;20027;-93
2024/01/26 08:39:04;;;;;;;6.22;1.25;;;;;;;4.39;100.00;101664.91;4954121;29;20478;-94
2024/01/26 08:41:29;;;;;;;5.53;1.30;;;;;;;4.43;100.00;101670.81;4953285;29;20030;-94
2024/01/26 08:43:54;;;;;;;10.05;1.17;;;;;;;4.43;100.00;101675.94;4954209;29;20078;-93
2024/01/26 08:46:20;;;;;;;10.25;2.67;;;;;;;4.48;100.00;101679.28;4952987;29;20032;-93
2024/01/26 08:48:46;;;;;;;8.73;1.38;;;;;;;4.81;100.00;101693.34;4954397;28;20023;-94
2024/01/26 08:51:11;;;;;;;16.05;2.17;;;;;;;4.77;100.00;101691.69;4969213;28;20023;-93
2024/01/26 08:53:36;;;;;;;6.30;1.38;;;;;;;4.72;100.00;101694.31;4954151;29;20466;-93
2024/01/26 08:56:05;;;;;;;12.40;1.85;;;;;;;4.71;100.00;101707.97;4954253;28;20030;-93
2024/01/26 08:58:31;;;;;;;15.20;1.65;;;;;;;4.78;100.00;101710.44;4953805;28;20051;-94
2024/01/26 09:00:56;;;;;;;9.38;2.08;;;;;;;4.82;100.00;101719.78;4954051;28;20058;-93
2024/01/26 09:03:21;;;;;;;8.18;1.65;;;;;;;4.88;100.00;101735.91;4968999;28;20062;-94
2024/01/26 09:05:47;;;;;;;14.70;1.73;;;;;;;5.14;100.00;101743.22;4953537;29;20031;-93
2024/01/26 09:08:12;;;;;;;10.48;2.75;;;;;;;4.99;100.00;101743.41;4953820;29;20031;-94
2024/01/26 09:10:37;;;;;;;18.52;4.13;;;;;;;5.10;100.00;101761.19;4969088;28;20035;-94
2024/01/26 09:13:03;;;;;;;15.85;1.52;;;;;;;5.26;100.00;101762.66;4953719;28;20074;-94
2024/01/26 09:15:28;;;;;;;8.18;1.65;;;;;;;5.17;100.00;101767.94;4952531;29;20067;-93
2024/01/26 09:17:55;;;;;;;15.15;2.47;;;;;;;5.12;100.00;101785.03;4963550;28;20028;-94
2024/01/26 09:20:20;;;;;;;8.77;1.25;;;;;;;5.11;100.00;101784.19;4948164;29;20390;-94
2024/01/26 09:22:45;;;;;;;10.70;1.98;;;;;;;5.14;100.00;101799.53;4936803;29;20040;-94
2024/01/26 09:25:11;;;;;;;7.28;1.20;;;;;;;5.11;100.00;101796.16;4931150;29;20039;-94
2024/01/26 09:27:36;;;;;;;11.10;1.45;;;;;;;5.19;100.00;101809.69;4928350;29;20039;-94
2024/01/26 09:30:03;;;;;;;13.85;2.15;;;;;;;5.25;100.00;101816.44;4944001;28;20118;-93
2024/01/26 09:32:29;;;;;;;10.95;2.17;;;;;;;5.30;100.00;101824.91;4928152;29;20485;-93
2024/01/26 09:34:54;;;;;;;11.65;1.40;;;;;;;5.35;100.00;101828.25;4933629;29;20067;-92
2024/01/26 09:37:20;;;;;;;20.08;2.88;;;;;;;5.39;100.00;101829.91;4932666;29;20027;-94
2024/01/26 09:39:46;;;;;;;8.45;1.40;;;;;;;5.45;100.00;101834.09;4932890;29;20035;-94
2024/01/26 09:42:11;;;;;;;7.10;1.40;;;;;;;5.36;100.00;101837.63;4932038;29;20034;-94
2024/01/26 09:44:37;;;;;;;9.68;1.90;;;;;;;5.47;100.00;101840.06;4931338;29;20035;-94
2024/01/26 09:47:06;;;;;;;11.27;2.03;;;;;;;5.62;100.00;101850.06;4931550;29;21180;-94
2024/01/26 09:49:32;;;;;;;11.05;1.23;;;;;;;5.66;100.00;101838.94;4932743;29;20054;-94
2024/01/26 09:51:57;;;;;;;9.88;1.45;;;;;;;5.77;100.00;101841.31;4933137;29;20537;-91
2024/01/26 09:54:23;;;;;;;10.85;1.77;;;;;;;6.00;100.00;101834.16;4933477;29;20040;-92
2024/01/26 09:56:51;;;;;;;10.82;1.48;;;;;;;6.22;100.00;101855.16;4932905;28;20102;-92
2024/01/26 09:59:16;;;;;;;10.23;1.70;;;;;;;6.80;100.00;101844.72;4933307;29;20031;-94
2024/01/26 10:01:45;;;;;;;6.50;1.63;;;;;;;6.93;100.00;101858.19;4933035;29;20026;-92
2024/01/26 10:04:10;;;;;;;18.35;2.33;;;;;;;7.11;100.00;101850.09;4932730;29;20032;-94
2024/01/26 10:06:36;;;;;;;16.63;2.60;;;;;;;6.94;100.00;101855.56;4931768;29;20031;-91
2024/01/26 10:09:03;;;;;;;8.57;1.70;;;;;;;7.26;100.00;101862.63;4947656;28;20126;-94
2024/01/26 10:11:30;;;;;;;8.88;1.40;;;;;;;7.40;100.00;101869.22;4931721;29;20039;-93
2024/01/26 10:13:56;;;;;;;14.60;1.90;;;;;;;8.00;100.00;101894.44;4930608;29;20399;-93
2024/01/26 10:16:21;;;;;;;9.27;1.58;;;;;;;8.26;98.13;101893.78;4931504;29;20027;-94
2024/01/26 10:18:48;;;;;;;12.70;1.60;;;;;;;9.60;90.38;101903.09;4931642;29;20039;-93
2024/01/26 10:21:16;;;;;;;12.77;1.55;;;;;;;9.68;81.12;101916.59;4947755;29;20020;-93
2024/01/26 10:23:42;;;;;;;13.60;1.83;;;;;;;9.64;84.70;101921.00;4933703;29;21615;-94
2024/01/26 10:26:10;;;;;;;9.60;2.00;;;;;;;9.65;85.97;101916.69;4932922;29;20095;-93
2024/01/26 10:28:36;;;;;;;11.65;2.83;;;;;;;10.59;77.52;101924.91;4931094;29;20032;-94
2024/01/26 10:31:02;;;;;;;10.38;1.63;;;;;;;11.47;71.02;101916.63;4933055;29;20397;-94
2024/01/26 10:33:30;;;;;;;8.05;1.55;;;;;;;12.08;64.92;101924.66;4933462;29;20019;-94
2024/01/26 10:36:02;;;;;;;12.23;1.60;;;;;;;12.35;61.98;101927.84;4931155;29;20095;-94
2024/01/26 10:38:29;;;;;;;15.02;3.50;;;;;;;12.59;64.05;101930.34;4932015;29;20043;-95
2024/01/26 10:41:03;;;;;;;8.05;1.73;;;;;;;13.39;58.40;101932.94;4931336;29;20040;-94
2024/01/26 10:43:29;;;;;;;11.10;2.00;;;;;;;12.91;60.27;101941.09;4932398;29;20046;-93
2024/01/26 10:45:56;;;;;;;15.48;2.72;;;;;;;13.44;57.81;101945.69;4930220;29;20039;-92
2024/01/26 10:48:26;;;;;;;13.45;1.83;;;;;;;14.00;55.08;101955.19;4933092;29;20031;-93
2024/01/26 10:50:52;;;;;;;11.13;2.05;;;;;;;14.12;56.55;101959.78;4932877;29;20023;-92
2024/01/26 10:53:19;;;;;;;12.43;2.05;;;;;;;12.88;59.42;101978.34;4930692;29;20126;-92
2024/01/26 10:55:45;;;;;;;10.15;2.03;;;;;;;13.47;58.03;101977.50;4931218;29;20055;-93
2024/01/26 10:58:11;;;;;;;9.50;2.38;;;;;;;13.39;56.43;101969.22;4931095;29;20023;-93
2024/01/26 11:00:36;;;;;;;15.88;2.63;;;;;;;14.06;54.02;101978.25;4946948;29;20020;-94
2024/01/26 11:03:03;;;;;;;10.18;1.88;;;;;;;13.62;55.83;101978.56;4930414;29;20438;-93
2024/01/26 11:05:29;;;;;;;11.13;2.08;;;;;;;12.73;57.57;101995.38;4930054;29;20390;-93
2024/01/26 11:07:55;;;;;;;8.93;1.92;;;;;;;13.74;56.49;101997.91;4931488;29;20023;-93
2024/01/26 11:10:28;;;;;;;11.32;2.78;;;;;;;13.60;55.98;102011.50;4931259;29;20032;-93
2024/01/26 11:13:05;;;;;;;12.02;1.90;;;;;;;13.52;54.91;102016.22;4931331;29;20505;-93